sensor_id;sensor_type;location;lat;lon;timestamp;pressure;altitude;pressure_sealevel;temperature;humidity
63111;BME280;49201;53.426;10.300;2023-02-20T00:01:23;102131.47;;;5.38;100.00
63111;BME280;49201;53.426;10.300;2023-02-20T00:03:48;102131.81;;;5.44;100.00
63111;BME280;49201;53.426;10.300;2023-02-20T00:06:14;102129.44;;;5.47;100.00
63111;BME280;49201;53.426;10.300;2023-02-20T00:08:39;102117.84;;;5.50;100.00
63111;BME280;49201;53.426;10.300;2023-02-20T00:11:05;102118.69;;;5.51;100.00
63111;BME280;49201;53.426;10.300;2023-02-20T00:13:31;102108.63;;;5.52;100.00
63111;BME280;49201;53.426;10.300;2023-02-20T00:15:56;102108.81;;;5.55;100.00
63111;BME280;49201;53.426;10.300;2023-02-20T00:18:22;102093.75;;;5.58;100.00
63111;BME280;49201;53.426;10.300;2023-02-20T00:20:47;102083.06;;;5.64;100.00
63111;BME280;49201;53.426;10.300;2023-02-20T00:23:13;102080.53;;;5.64;100.00
63111;BME280;49201;53.426;10.300;2023-02-20T00:25:38;102086.59;;;5.66;100.00
63111;BME280;49201;53.426;10.300;2023-02-20T00:28:04;102081.56;;;5.67;100.00
63111;BME280;49201;53.426;10.300;2023-02-20T00:30:30;102074.84;;;5.68;100.00
63111;BME280;49201;53.426;10.300;2023-02-20T00:32:55;102061.53;;;5.72;100.00
63111;BME280;49201;53.426;10.300;2023-02-20T00:35:22;102065.72;;;5.71;100.00
63111;BME280;49201;53.426;10.300;2023-02-20T00:37:48;102051.47;;;5.73;100.00
63111;BME280;49201;53.426;10.300;2023-02-20T00:40:16;102040.31;;;5.71;100.00
63111;BME280;49201;53.426;10.300;2023-02-20T00:42:42;102037.03;;;5.72;100.00
63111;BME280;49201;53.426;10.300;2023-02-20T00:45:08;102028.59;;;5.73;100.00
63111;BME280;49201;53.426;10.300;2023-02-20T00:47:35;102016.75;;;5.74;100.00
63111;BME280;49201;53.426;10.300;2023-02-20T00:50:01;102009.06;;;5.72;100.00
63111;BME280;49201;53.426;10.300;2023-02-20T00:52:27;102005.75;;;5.73;100.00
63111;BME280;49201;53.426;10.300;2023-02-20T00:54:52;101995.66;;;5.75;100.00
63111;BME280;49201;53.426;10.300;2023-02-20T00:57:17;101998.34;;;5.78;100.00
63111;BME280;49201;53.426;10.300;2023-02-20T00:59:43;101989.88;;;5.77;100.00
63111;BME280;49201;53.426;10.300;2023-02-20T01:02:09;101978.72;;;5.75;100.00
63111;BME280;49201;53.426;10.300;2023-02-20T01:04:35;101977.09;;;5.76;100.00
63111;BME280;49201;53.426;10.300;2023-02-20T01:07:01;101973.75;;;5.77;100.00
63111;BME280;49201;53.426;10.300;2023-02-20T01:09:26;101963.69;;;5.78;100.00
63111;BME280;49201;53.426;10.300;2023-02-20T01:11:53;101951.69;;;5.76;100.00
63111;BME280;49201;53.426;10.300;2023-02-20T01:14:19;101962.00;;;5.79;100.00
63111;BME280;49201;53.426;10.300;2023-02-20T01:16:49;101967.06;;;5.79;100.00
63111;BME280;49201;53.426;10.300;2023-02-20T01:19:19;101970.63;;;5.81;100.00
63111;BME280;49201;53.426;10.300;2023-02-20T01:21:45;101977.53;;;5.83;100.00
63111;BME280;49201;53.426;10.300;2023-02-20T01:24:13;101977.44;;;5.82;100.00
63111;BME280;49201;53.426;10.300;2023-02-20T01:26:43;101972.38;;;5.82;100.00
63111;BME280;49201;53.426;10.300;2023-02-20T01:29:09;101956.22;;;5.81;100.00
63111;BME280;49201;53.426;10.300;2023-02-20T01:31:34;101947.84;;;5.82;100.00
63111;BME280;49201;53.426;10.300;2023-02-20T01:34:00;101942.84;;;5.84;100.00
63111;BME280;49201;53.426;10.300;2023-02-20T01:36:25;101938.63;;;5.84;100.00
63111;BME280;49201;53.426;10.300;2023-02-20T01:38:53;101934.44;;;5.85;100.00
63111;BME280;49201;53.426;10.300;2023-02-20T01:41:20;101939.59;;;5.86;100.00
63111;BME280;49201;53.426;10.300;2023-02-20T01:43:46;101933.72;;;5.87;100.00
63111;BME280;49201;53.426;10.300;2023-02-20T01:49:07;101934.94;;;5.94;100.00
63111;BME280;49201;53.426;10.300;2023-02-20T01:51:39;101932.47;;;5.95;100.00
63111;BME280;49201;53.426;10.300;2023-02-20T01:54:07;101926.63;;;5.96;100.00
63111;BME280;49201;53.426;10.300;2023-02-20T01:56:34;101922.38;;;5.97;100.00
63111;BME280;49201;53.426;10.300;2023-02-20T01:59:02;101920.72;;;5.97;100.00
63111;BME280;49201;53.426;10.300;2023-02-20T02:01:29;101914.84;;;5.98;100.00
63111;BME280;49201;53.426;10.300;2023-02-20T02:03:59;101905.56;;;5.99;100.00
63111;BME280;49201;53.426;10.300;2023-02-20T02:06:25;101893.81;;;6.01;100.00
63111;BME280;49201;53.426;10.300;2023-02-20T02:08:55;101884.44;;;6.00;100.00
63111;BME280;49201;53.426;10.300;2023-02-20T02:11:23;101878.56;;;6.01;100.00
63111;BME280;49201;53.426;10.300;2023-02-20T02:13:49;101866.72;;;6.01;100.00
63111;BME280;49201;53.426;10.300;2023-02-20T02:28:01;101851.16;;;6.11;100.00
63111;BME280;49201;53.426;10.300;2023-02-20T02:33:47;101835.38;;;6.17;100.00
63111;BME280;49201;53.426;10.300;2023-02-20T02:41:55;101822.97;;;6.23;100.00
63111;BME280;49201;53.426;10.300;2023-02-20T02:44:32;101824.81;;;6.25;100.00
63111;BME280;49201;53.426;10.300;2023-02-20T02:47:05;101824.63;;;6.22;100.00
63111;BME280;49201;53.426;10.300;2023-02-20T02:52:08;101822.97;;;6.23;100.00
63111;BME280;49201;53.426;10.300;2023-02-20T02:54:35;101830.59;;;6.23;100.00
63111;BME280;49201;53.426;10.300;2023-02-20T02:57:24;101828.16;;;6.24;100.00
63111;BME280;49201;53.426;10.300;2023-02-20T02:59:57;101816.44;;;6.28;100.00
63111;BME280;49201;53.426;10.300;2023-02-20T03:02:27;101807.09;;;6.27;100.00
63111;BME280;49201;53.426;10.300;2023-02-20T03:04:55;101809.00;;;6.31;100.00
63111;BME280;49201;53.426;10.300;2023-02-20T03:07:22;101798.97;;;6.34;100.00
63111;BME280;49201;53.426;10.300;2023-02-20T03:10:02;101787.13;;;6.34;100.00
63111;BME280;49201;53.426;10.300;2023-02-20T03:12:36;101781.31;;;6.37;100.00
63111;BME280;49201;53.426;10.300;2023-02-20T03:15:31;101784.75;;;6.37;100.00
63111;BME280;49201;53.426;10.300;2023-02-20T03:21:16;101777.97;;;6.38;100.00
63111;BME280;49201;53.426;10.300;2023-02-20T03:23:46;101781.41;;;6.38;100.00
63111;BME280;49201;53.426;10.300;2023-02-20T03:26:16;101777.25;;;6.40;100.00
63111;BME280;49201;53.426;10.300;2023-02-20T03:28:50;101780.59;;;6.39;100.00
63111;BME280;49201;53.426;10.300;2023-02-20T03:31:27;101770.44;;;6.39;100.00
63111;BME280;49201;53.426;10.300;2023-02-20T03:34:17;101771.22;;;6.38;100.00
63111;BME280;49201;53.426;10.300;2023-02-20T03:37:18;101753.56;;;6.41;100.00
63111;BME280;49201;53.426;10.300;2023-02-20T03:40:09;101745.16;;;6.42;100.00
63111;BME280;49201;53.426;10.300;2023-02-20T03:43:01;101742.69;;;6.44;100.00
63111;BME280;49201;53.426;10.300;2023-02-20T03:45:47;101745.28;;;6.45;100.00
63111;BME280;49201;53.426;10.300;2023-02-20T03:48:23;101750.47;;;6.47;100.00
63111;BME280;49201;53.426;10.300;2023-02-20T03:50:51;101750.53;;;6.48;100.00
63111;BME280;49201;53.426;10.300;2023-02-20T03:53:44;101747.19;;;6.49;100.00
63111;BME280;49201;53.426;10.300;2023-02-20T03:56:14;101733.69;;;6.50;100.00
63111;BME280;49201;53.426;10.300;2023-02-20T03:58:46;101715.88;;;6.50;100.00
63111;BME280;49201;53.426;10.300;2023-02-20T04:01:14;101725.28;;;6.51;100.00
63111;BME280;49201;53.426;10.300;2023-02-20T04:03:45;101735.50;;;6.53;100.00
63111;BME280;49201;53.426;10.300;2023-02-20T04:06:13;101747.44;;;6.54;100.00
63111;BME280;49201;53.426;10.300;2023-02-20T04:08:51;101756.09;;;6.57;100.00
63111;BME280;49201;53.426;10.300;2023-02-20T04:11:28;101750.19;;;6.58;100.00
63111;BME280;49201;53.426;10.300;2023-02-20T04:13:57;101743.47;;;6.59;100.00
63111;BME280;49201;53.426;10.300;2023-02-20T04:16:24;101734.94;;;6.58;100.00
63111;BME280;49201;53.426;10.300;2023-02-20T04:18:50;101736.47;;;6.55;100.00
63111;BME280;49201;53.426;10.300;2023-02-20T04:21:40;101738.84;;;6.52;100.00
63111;BME280;49201;53.426;10.300;2023-02-20T04:24:13;101727.00;;;6.52;100.00
63111;BME280;49201;53.426;10.300;2023-02-20T04:26:41;101719.38;;;6.52;100.00
63111;BME280;49201;53.426;10.300;2023-02-20T04:29:07;101710.78;;;6.50;100.00
63111;BME280;49201;53.426;10.300;2023-02-20T04:31:32;101704.75;;;6.48;100.00
63111;BME280;49201;53.426;10.300;2023-02-20T04:33:58;101692.75;;;6.46;100.00
63111;BME280;49201;53.426;10.300;2023-02-20T04:36:25;101696.13;;;6.45;100.00
63111;BME280;49201;53.426;10.300;2023-02-20T04:38:53;101697.94;;;6.47;100.00
63111;BME280;49201;53.426;10.300;2023-02-20T04:41:23;101702.13;;;6.47;100.00
63111;BME280;49201;53.426;10.300;2023-02-20T04:43:49;101688.47;;;6.45;100.00
63111;BME280;49201;53.426;10.300;2023-02-20T04:46:15;101683.31;;;6.43;100.00
63111;BME280;49201;53.426;10.300;2023-02-20T04:48:41;101685.78;;;6.42;100.00
63111;BME280;49201;53.426;10.300;2023-02-20T04:51:07;101684.03;;;6.41;100.00
63111;BME280;49201;53.426;10.300;2023-02-20T04:53:33;101672.19;;;6.41;100.00
63111;BME280;49201;53.426;10.300;2023-02-20T04:55:58;101660.19;;;6.39;100.00
63111;BME280;49201;53.426;10.300;2023-02-20T04:58:25;101656.06;;;6.41;100.00
63111;BME280;49201;53.426;10.300;2023-02-20T05:01:00;101645.25;;;6.45;100.00
63111;BME280;49201;53.426;10.300;2023-02-20T05:03:26;101640.06;;;6.43;100.00
63111;BME280;49201;53.426;10.300;2023-02-20T05:05:51;101636.88;;;6.47;100.00
63111;BME280;49201;53.426;10.300;2023-02-20T05:08:16;101630.72;;;6.42;100.00
63111;BME280;49201;53.426;10.300;2023-02-20T05:10:42;101630.72;;;6.42;100.00
63111;BME280;49201;53.426;10.300;2023-02-20T05:13:07;101637.53;;;6.43;100.00
63111;BME280;49201;53.426;10.300;2023-02-20T05:15:33;101643.34;;;6.41;100.00
63111;BME280;49201;53.426;10.300;2023-02-20T05:17:58;101660.50;;;6.45;100.00
63111;BME280;49201;53.426;10.300;2023-02-20T05:20:24;101662.09;;;6.43;100.00
63111;BME280;49201;53.426;10.300;2023-02-20T05:23:09;101658.59;;;6.41;100.00
63111;BME280;49201;53.426;10.300;2023-02-20T05:25:35;101644.28;;;6.43;100.00
63111;BME280;49201;53.426;10.300;2023-02-20T05:28:00;101632.53;;;6.45;100.00
63111;BME280;49201;53.426;10.300;2023-02-20T05:30:25;101626.91;;;6.52;100.00
63111;BME280;49201;53.426;10.300;2023-02-20T05:32:51;101618.34;;;6.50;100.00
63111;BME280;49201;53.426;10.300;2023-02-20T05:35:16;101611.66;;;6.52;100.00
63111;BME280;49201;53.426;10.300;2023-02-20T05:37:42;101618.63;;;6.56;100.00
63111;BME280;49201;53.426;10.300;2023-02-20T05:40:08;101610.84;;;6.53;100.00
63111;BME280;49201;53.426;10.300;2023-02-20T05:42:33;101607.66;;;6.57;100.00
63111;BME280;49201;53.426;10.300;2023-02-20T05:44:58;101600.09;;;6.58;100.00
63111;BME280;49201;53.426;10.300;2023-02-20T05:47:26;101604.47;;;6.61;100.00
63111;BME280;49201;53.426;10.300;2023-02-20T05:49:51;101585.78;;;6.60;100.00
63111;BME280;49201;53.426;10.300;2023-02-20T05:52:17;101591.16;;;6.66;100.00
63111;BME280;49201;53.426;10.300;2023-02-20T05:54:45;101574.88;;;6.63;100.00
63111;BME280;49201;53.426;10.300;2023-02-20T05:57:10;101588.53;;;6.65;100.00
63111;BME280;49201;53.426;10.300;2023-02-20T05:59:37;101560.47;;;6.63;100.00
63111;BME280;49201;53.426;10.300;2023-02-20T06:02:03;101571.66;;;6.67;100.00
63111;BME280;49201;53.426;10.300;2023-02-20T06:04:29;101563.25;;;6.68;100.00
63111;BME280;49201;53.426;10.300;2023-02-20T06:06:54;101561.56;;;6.68;100.00
63111;BME280;49201;53.426;10.300;2023-02-20T06:09:20;101564.03;;;6.67;100.00
63111;BME280;49201;53.426;10.300;2023-02-20T06:11:54;101575.09;;;6.67;100.00
63111;BME280;49201;53.426;10.300;2023-02-20T06:14:21;101558.94;;;6.67;100.00
63111;BME280;49201;53.426;10.300;2023-02-20T06:16:47;101558.50;;;6.75;100.00
63111;BME280;49201;53.426;10.300;2023-02-20T06:19:21;101553.53;;;6.78;100.00
63111;BME280;49201;53.426;10.300;2023-02-20T06:21:48;101538.25;;;6.78;100.00
63111;BME280;49201;53.426;10.300;2023-02-20T06:24:14;101540.69;;;6.75;100.00
63111;BME280;49201;53.426;10.300;2023-02-20T06:26:40;101540.69;;;6.75;100.00
63111;BME280;49201;53.426;10.300;2023-02-20T06:29:06;101532.84;;;6.71;100.00
63111;BME280;49201;53.426;10.300;2023-02-20T06:31:32;101533.88;;;6.74;100.00
63111;BME280;49201;53.426;10.300;2023-02-20T06:33:57;101534.78;;;6.76;100.00
63111;BME280;49201;53.426;10.300;2023-02-20T06:36:30;101522.22;;;6.79;100.00
63111;BME280;49201;53.426;10.300;2023-02-20T06:38:56;101523.72;;;6.76;100.00
63111;BME280;49201;53.426;10.300;2023-02-20T06:41:22;101522.16;;;6.78;100.00
63111;BME280;49201;53.426;10.300;2023-02-20T06:43:48;101525.44;;;6.75;100.00
63111;BME280;49201;53.426;10.300;2023-02-20T06:46:13;101528.97;;;6.79;100.00
63111;BME280;49201;53.426;10.300;2023-02-20T06:48:50;101535.69;;;6.77;100.00
63111;BME280;49201;53.426;10.300;2023-02-20T06:51:25;101534.72;;;6.75;100.00
63111;BME280;49201;53.426;10.300;2023-02-20T06:53:51;101540.78;;;6.77;100.00
63111;BME280;49201;53.426;10.300;2023-02-20T06:56:19;101542.66;;;6.81;100.00
63111;BME280;49201;53.426;10.300;2023-02-20T06:58:46;101536.03;;;6.84;100.00
63111;BME280;49201;53.426;10.300;2023-02-20T07:01:13;101543.78;;;6.87;100.00
63111;BME280;49201;53.426;10.300;2023-02-20T07:03:38;101543.25;;;6.94;100.00
63111;BME280;49201;53.426;10.300;2023-02-20T07:06:03;101529.13;;;7.01;100.00
63111;BME280;49201;53.426;10.300;2023-02-20T07:08:29;101534.41;;;7.05;100.00
63111;BME280;49201;53.426;10.300;2023-02-20T07:10:54;101526.13;;;7.09;100.00
63111;BME280;49201;53.426;10.300;2023-02-20T07:13:21;101534.72;;;7.11;100.00
63111;BME280;49201;53.426;10.300;2023-02-20T07:15:47;101520.34;;;7.13;100.00
63111;BME280;49201;53.426;10.300;2023-02-20T07:18:13;101530.94;;;7.22;100.00
63111;BME280;49201;53.426;10.300;2023-02-20T07:20:38;101537.84;;;7.25;100.00
63111;BME280;49201;53.426;10.300;2023-02-20T07:23:04;101538.09;;;7.31;100.00
63111;BME280;49201;53.426;10.300;2023-02-20T07:25:29;101538.25;;;7.34;100.00
63111;BME280;49201;53.426;10.300;2023-02-20T07:27:55;101545.06;;;7.35;100.00
63111;BME280;49201;53.426;10.300;2023-02-20T07:30:20;101542.75;;;7.39;100.00
63111;BME280;49201;53.426;10.300;2023-02-20T07:32:49;101529.19;;;7.40;100.00
63111;BME280;49201;53.426;10.300;2023-02-20T07:35:15;101530.94;;;7.41;100.00
63111;BME280;49201;53.426;10.300;2023-02-20T07:37:40;101530.31;;;7.47;100.00
63111;BME280;49201;53.426;10.300;2023-02-20T07:40:06;101531.19;;;7.47;100.00
63111;BME280;49201;53.426;10.300;2023-02-20T07:42:31;101541.44;;;7.49;100.00
63111;BME280;49201;53.426;10.300;2023-02-20T07:45:05;101535.59;;;7.51;100.00
63111;BME280;49201;53.426;10.300;2023-02-20T07:47:31;101529.72;;;7.52;100.00
63111;BME280;49201;53.426;10.300;2023-02-20T07:49:56;101530.56;;;7.53;100.00
63111;BME280;49201;53.426;10.300;2023-02-20T07:52:22;101523.81;;;7.53;100.00
63111;BME280;49201;53.426;10.300;2023-02-20T07:54:47;101522.19;;;7.55;100.00
63111;BME280;49201;53.426;10.300;2023-02-20T07:57:13;101522.25;;;7.57;100.00
63111;BME280;49201;53.426;10.300;2023-02-20T07:59:40;101513.72;;;7.56;100.00
63111;BME280;49201;53.426;10.300;2023-02-20T08:02:05;101519.72;;;7.57;100.00
63111;BME280;49201;53.426;10.300;2023-02-20T08:04:31;101513.00;;;7.59;100.00
63111;BME280;49201;53.426;10.300;2023-02-20T08:06:57;101513.88;;;7.59;100.00
63111;BME280;49201;53.426;10.300;2023-02-20T08:09:22;101504.56;;;7.60;100.00
63111;BME280;49201;53.426;10.300;2023-02-20T08:11:47;101502.00;;;7.60;100.00
63111;BME280;49201;53.426;10.300;2023-02-20T08:14:13;101506.28;;;7.61;100.00
63111;BME280;49201;53.426;10.300;2023-02-20T08:16:39;101502.06;;;7.61;100.00
63111;BME280;49201;53.426;10.300;2023-02-20T08:19:04;101499.50;;;7.61;100.00
63111;BME280;49201;53.426;10.300;2023-02-20T08:21:30;101492.81;;;7.63;100.00
63111;BME280;49201;53.426;10.300;2023-02-20T08:23:55;101475.84;;;7.64;100.00
63111;BME280;49201;53.426;10.300;2023-02-20T08:26:21;101481.81;;;7.64;100.00
63111;BME280;49201;53.426;10.300;2023-02-20T08:28:48;101481.88;;;7.66;100.00
63111;BME280;49201;53.426;10.300;2023-02-20T08:31:15;101484.50;;;7.67;100.00
63111;BME280;49201;53.426;10.300;2023-02-20T08:33:40;101479.38;;;7.67;100.00
63111;BME280;49201;53.426;10.300;2023-02-20T08:36:06;101481.94;;;7.67;100.00
63111;BME280;49201;53.426;10.300;2023-02-20T08:38:34;101468.31;;;7.67;100.00
63111;BME280;49201;53.426;10.300;2023-02-20T08:41:04;101471.75;;;7.67;100.00
63111;BME280;49201;53.426;10.300;2023-02-20T08:43:32;101480.31;;;7.69;100.00
63111;BME280;49201;53.426;10.300;2023-02-20T08:45:58;101464.09;;;7.67;100.00
63111;BME280;49201;53.426;10.300;2023-02-20T08:48:23;101467.56;;;7.69;100.00
63111;BME280;49201;53.426;10.300;2023-02-20T08:50:49;101446.34;;;7.70;100.00
63111;BME280;49201;53.426;10.300;2023-02-20T08:53:15;101449.78;;;7.71;100.00
63111;BME280;49201;53.426;10.300;2023-02-20T08:55:41;101451.47;;;7.70;100.00
63111;BME280;49201;53.426;10.300;2023-02-20T08:58:06;101446.34;;;7.70;100.00
63111;BME280;49201;53.426;10.300;2023-02-20T09:00:32;101438.69;;;7.69;100.00
63111;BME280;49201;53.426;10.300;2023-02-20T09:02:57;101442.06;;;7.69;100.00
63111;BME280;49201;53.426;10.300;2023-02-20T09:05:24;101436.97;;;7.69;100.00
63111;BME280;49201;53.426;10.300;2023-02-20T09:07:50;101428.53;;;7.70;100.00
63111;BME280;49201;53.426;10.300;2023-02-20T09:10:17;101430.22;;;7.70;100.00
63111;BME280;49201;53.426;10.300;2023-02-20T09:12:43;101427.00;;;7.74;100.00
63111;BME280;49201;53.426;10.300;2023-02-20T09:15:09;101418.59;;;7.76;100.00
63111;BME280;49201;53.426;10.300;2023-02-20T09:17:34;101414.41;;;7.78;100.00
63111;BME280;49201;53.426;10.300;2023-02-20T09:20:00;101404.28;;;7.80;100.00
63111;BME280;49201;53.426;10.300;2023-02-20T09:22:26;101406.81;;;7.80;100.00
63111;BME280;49201;53.426;10.300;2023-02-20T09:24:53;101406.22;;;7.85;100.00
63111;BME280;49201;53.426;10.300;2023-02-20T09:27:19;101396.69;;;7.81;100.00
63111;BME280;49201;53.426;10.300;2023-02-20T09:29:45;101391.66;;;7.83;100.00
63111;BME280;49201;53.426;10.300;2023-02-20T09:32:12;101381.41;;;7.81;100.00
63111;BME280;49201;53.426;10.300;2023-02-20T09:34:38;101378.78;;;7.80;100.00
63111;BME280;49201;53.426;10.300;2023-02-20T09:37:03;101383.06;;;7.81;100.00
63111;BME280;49201;53.426;10.300;2023-02-20T09:39:29;101384.81;;;7.82;100.00
63111;BME280;49201;53.426;10.300;2023-02-20T09:42:04;101383.13;;;7.82;100.00
63111;BME280;49201;53.426;10.300;2023-02-20T09:50:43;101372.13;;;7.83;100.00
63111;BME280;49201;53.426;10.300;2023-02-20T09:53:36;101372.25;;;7.86;100.00
63111;BME280;49201;53.426;10.300;2023-02-20T09:56:05;101373.91;;;7.86;100.00
63111;BME280;49201;53.426;10.300;2023-02-20T09:58:45;101361.16;;;7.86;100.00
63111;BME280;49201;53.426;10.300;2023-02-20T10:01:16;101359.63;;;7.89;100.00
63111;BME280;49201;53.426;10.300;2023-02-20T10:03:55;101352.91;;;7.91;100.00
63111;BME280;49201;53.426;10.300;2023-02-20T10:06:24;101360.66;;;7.94;100.00
63111;BME280;49201;53.426;10.300;2023-02-20T10:08:51;101353.13;;;7.97;100.00
63111;BME280;49201;53.426;10.300;2023-02-20T10:11:47;101360.97;;;8.02;100.00
63111;BME280;49201;53.426;10.300;2023-02-20T10:22:52;101339.25;;;8.13;100.00
63111;BME280;49201;53.426;10.300;2023-02-20T10:25:30;101346.75;;;8.30;100.00
63111;BME280;49201;53.426;10.300;2023-02-20T10:28:04;101350.22;;;8.32;100.00
63111;BME280;49201;53.426;10.300;2023-02-20T10:30:34;101346.22;;;8.39;100.00
63111;BME280;49201;53.426;10.300;2023-02-20T10:38:17;101332.09;;;8.48;100.00
63111;BME280;49201;53.426;10.300;2023-02-20T10:40:52;101334.13;;;8.57;100.00
63111;BME280;49201;53.426;10.300;2023-02-20T10:43:35;101347.91;;;8.62;100.00
63111;BME280;49201;53.426;10.300;2023-02-20T10:46:08;101342.03;;;8.64;100.00
63111;BME280;49201;53.426;10.300;2023-02-20T10:48:37;101337.91;;;8.68;100.00
63111;BME280;49201;53.426;10.300;2023-02-20T10:51:09;101338.84;;;8.70;100.00
63111;BME280;49201;53.426;10.300;2023-02-20T10:53:48;101326.28;;;8.76;100.00
63111;BME280;49201;53.426;10.300;2023-02-20T10:56:32;101334.03;;;8.79;100.00
63111;BME280;49201;53.426;10.300;2023-02-20T11:01:35;101327.56;;;8.88;100.00
63111;BME280;49201;53.426;10.300;2023-02-20T11:04:13;101325.56;;;8.80;100.00
63111;BME280;49201;53.426;10.300;2023-02-20T11:06:55;101322.03;;;8.76;100.00
63111;BME280;49201;53.426;10.300;2023-02-20T11:09:22;101317.84;;;8.78;100.00
63111;BME280;49201;53.426;10.300;2023-02-20T11:11:48;101330.69;;;8.81;100.00
63111;BME280;49201;53.426;10.300;2023-02-20T11:14:43;101320.72;;;8.87;100.00
63111;BME280;49201;53.426;10.300;2023-02-20T11:17:19;101320.78;;;8.89;100.00
63111;BME280;49201;53.426;10.300;2023-02-20T11:19:53;101314.78;;;8.88;100.00
63111;BME280;49201;53.426;10.300;2023-02-20T11:27:44;101319.19;;;8.92;100.00
63111;BME280;49201;53.426;10.300;2023-02-20T11:30:27;101321.75;;;8.92;100.00
63111;BME280;49201;53.426;10.300;2023-02-20T11:33:00;101326.97;;;8.95;100.00
63111;BME280;49201;53.426;10.300;2023-02-20T11:35:27;101331.31;;;8.98;100.00
63111;BME280;49201;53.426;10.300;2023-02-20T11:38:16;101333.09;;;9.00;100.00
63111;BME280;49201;53.426;10.300;2023-02-20T11:43:31;101328.16;;;9.06;100.00
63111;BME280;49201;53.426;10.300;2023-02-20T11:46:09;101318.84;;;9.08;100.00
63111;BME280;49201;53.426;10.300;2023-02-20T11:48:35;101310.44;;;9.11;100.00
63111;BME280;49201;53.426;10.300;2023-02-20T11:51:01;101313.03;;;9.12;100.00
63111;BME280;49201;53.426;10.300;2023-02-20T11:53:28;101312.31;;;9.16;100.00
63111;BME280;49201;53.426;10.300;2023-02-20T11:56:14;101314.16;;;9.20;100.00
63111;BME280;49201;53.426;10.300;2023-02-20T11:58:41;101305.72;;;9.23;100.00
63111;BME280;49201;53.426;10.300;2023-02-20T12:01:30;101311.84;;;9.28;100.00
63111;BME280;49201;53.426;10.300;2023-02-20T12:03:58;101288.06;;;9.30;100.00
63111;BME280;49201;53.426;10.300;2023-02-20T12:06:38;101284.91;;;9.37;100.00
63111;BME280;49201;53.426;10.300;2023-02-20T12:09:10;101283.41;;;9.44;100.00
63111;BME280;49201;53.426;10.300;2023-02-20T12:11:38;101283.44;;;9.45;100.00
63111;BME280;49201;53.426;10.300;2023-02-20T12:14:12;101274.31;;;9.53;100.00
63111;BME280;49201;53.426;10.300;2023-02-20T12:35:26;101252.13;;;9.80;100.00
63111;BME280;49201;53.426;10.300;2023-02-20T12:38:02;101243.63;;;9.81;100.00
63111;BME280;49201;53.426;10.300;2023-02-20T12:43:50;101253.94;;;9.84;100.00
63111;BME280;49201;53.426;10.300;2023-02-20T12:46:23;101252.28;;;9.86;100.00
63111;BME280;49201;53.426;10.300;2023-02-20T12:51:57;101242.09;;;9.88;100.00
63111;BME280;49201;53.426;10.300;2023-02-20T12:57:29;101244.81;;;9.94;100.00
63111;BME280;49201;53.426;10.300;2023-02-20T13:00:03;101228.69;;;9.96;100.00
63111;BME280;49201;53.426;10.300;2023-02-20T13:05:05;101229.66;;;10.00;100.00
63111;BME280;49201;53.426;10.300;2023-02-20T13:07:45;101234.75;;;9.98;100.00
63111;BME280;49201;53.426;10.300;2023-02-20T13:10:19;101233.00;;;9.97;100.00
63111;BME280;49201;53.426;10.300;2023-02-20T13:12:50;101233.03;;;9.99;100.00
63111;BME280;49201;53.426;10.300;2023-02-20T13:18:26;101232.38;;;10.04;100.00
63111;BME280;49201;53.426;10.300;2023-02-20T13:21:00;101230.75;;;10.08;100.00
63111;BME280;49201;53.426;10.300;2023-02-20T13:23:32;101231.63;;;10.08;100.00
63111;BME280;49201;53.426;10.300;2023-02-20T13:25:59;101243.53;;;10.06;100.00
63111;BME280;49201;53.426;10.300;2023-02-20T13:28:39;101240.06;;;10.04;100.00
63111;BME280;49201;53.426;10.300;2023-02-20T13:31:21;101237.63;;;10.09;100.00
63111;BME280;49201;53.426;10.300;2023-02-20T13:36:41;101236.03;;;10.12;100.00
63111;BME280;49201;53.426;10.300;2023-02-20T13:58:08;101232.63;;;10.13;100.00
63111;BME280;49201;53.426;10.300;2023-02-20T14:00:52;101238.56;;;10.12;100.00
63111;BME280;49201;53.426;10.300;2023-02-20T14:03:28;101232.63;;;10.13;100.00
63111;BME280;49201;53.426;10.300;2023-02-20T14:08:29;101231.72;;;10.11;100.00
63111;BME280;49201;53.426;10.300;2023-02-20T14:13:31;101222.41;;;10.13;100.00
63111;BME280;49201;53.426;10.300;2023-02-20T14:15:58;101214.81;;;10.16;100.00
63111;BME280;49201;53.426;10.300;2023-02-20T14:18:30;101224.25;;;10.19;100.00
63111;BME280;49201;53.426;10.300;2023-02-20T14:21:04;101214.84;;;10.18;100.00
63111;BME280;49201;53.426;10.300;2023-02-20T14:23:33;101214.84;;;10.18;100.00
63111;BME280;49201;53.426;10.300;2023-02-20T14:28:50;101226.78;;;10.17;100.00
63111;BME280;49201;53.426;10.300;2023-02-20T14:31:24;101219.97;;;10.18;100.00
63111;BME280;49201;53.426;10.300;2023-02-20T14:33:57;101214.84;;;10.18;100.00
63111;BME280;49201;53.426;10.300;2023-02-20T14:41:56;101216.59;;;10.19;100.00
63111;BME280;49201;53.426;10.300;2023-02-20T14:44:22;101220.81;;;10.18;100.00
63111;BME280;49201;53.426;10.300;2023-02-20T14:46:54;101216.59;;;10.19;100.00
63111;BME280;49201;53.426;10.300;2023-02-20T14:49:28;101216.66;;;10.22;100.00
63111;BME280;49201;53.426;10.300;2023-02-20T14:52:12;101220.00;;;10.19;100.00
63111;BME280;49201;53.426;10.300;2023-02-20T14:54:40;101223.47;;;10.21;100.00
63111;BME280;49201;53.426;10.300;2023-02-20T14:57:09;101218.25;;;10.18;100.00
63111;BME280;49201;53.426;10.300;2023-02-20T14:59:37;101213.97;;;10.17;100.00